Flight Track Log - Related Links

Times and Time Zones

All times are in EDT time to prevent confusion due to time zone crossing. See the UAL3818 flight status page for this flight to view local times or setup timezone preferences in your user account.

Time Position Orientation Groundspeed Altitude Reporting Facility
EDT Latitude Longitude Course Direction KTS MPH feet Rate Location/Type
Sun 11:22:01 PM 41.9167 -87.8833 90° East 194 223 3,900  Level Chicago TRACON
Sun 11:23:00 PM 42.0351 -87.5309 83° East  Level FlightAware Approximate
Sun 11:23:01 PM 41.9333 -87.8000 75° East 238 274 6,100  Level Chicago TRACON
Sun 11:24:00 PM 42.0468 -87.4026 83° East  Level FlightAware Approximate
Sun 11:25:00 PM 42.0641 -87.2755 78° East  Level FlightAware Approximate
Sun 11:25:05 PM 41.9742 -87.6211 73° East 287 330 10,100  Level Chicago Center
Sun 11:26:00 PM 42.0835 -87.1488 77° East  Level FlightAware Approximate
Sun 11:26:05 PM 42.0061 -87.4942 71° East 300 345 12,300  Level Chicago Center
Sun 11:27:00 PM 42.1000 -87.0225 90° East  Level FlightAware Approximate
Sun 11:27:06 PM 42.0361 -87.3736 71° East 338 389 13,500  Level Chicago Center
Sun 11:28:07 PM 42.0675 -87.2444 72° East 362 417 14,400 984 Climbing Chicago Center
Sun 11:29:08 PM 42.1019 -87.1089 71° East 380 437 15,500 1,033 Climbing Chicago Center
Sun 11:30:09 PM 42.1164 -86.9633 82° East 392 451 16,500 1,041 Climbing Chicago Center
Sun 11:31:09 PM 42.1208 -86.8139 88° East 398 458 17,600 843 Climbing Chicago Center
Sun 11:32:10 PM 42.1258 -86.6683 87° East 401 461 18,200 787 Climbing Chicago Center
Sun 11:33:11 PM 42.1319 -86.5161 87° East 406 467 19,200 1,033 Climbing Chicago Center
Sun 11:34:12 PM 42.1372 -86.3611 87° East 413 475 20,300 1,041 Climbing Chicago Center
Sun 11:35:12 PM 42.1417 -86.2061 88° East 415 478 21,300 1,055 Climbing Chicago Center
Sun 11:37:14 PM 42.1367 -85.8767 91° East 415 478 23,500 1,082 Climbing Chicago Center
Sun 11:38:15 PM 42.1328 -85.7194 92° East 420 483 24,600 1,041 Climbing Chicago Center
Sun 11:39:15 PM 42.1292 -85.5631 92° East 419 482 25,600 992 Climbing Chicago Center
Sun 11:40:16 PM 42.1242 -85.4081 92° East 418 481 26,600 771 Climbing Chicago Center
Sun 11:41:04 PM 42.1219 -85.2869 91° East 412 474 27,000 222 Climbing Cleveland Center
Sun 11:42:04 PM 42.1181 -85.1269 92° East 418 481 27,000  Level Cleveland Center
Sun 11:43:04 PM 42.1122 -84.9586 93° East 434 499 27,000  Level Cleveland Center
Sun 11:44:04 PM 42.0997 -84.7842 95° East 446 513 27,000  Level Cleveland Center
Sun 11:45:04 PM 42.0617 -84.6250 108° East 446 513 27,000  Level Cleveland Center
Sun 11:46:04 PM 42.0258 -84.4578 106° East 458 527 27,000  Level Cleveland Center
Sun 11:47:04 PM 41.9875 -84.2906 107° East 466 536 27,000  Level Cleveland Center
Sun 11:48:04 PM 41.9431 -84.1119 108° East 466 536 27,000  Level Cleveland Center
Sun 11:49:04 PM 41.9083 -83.9511 106° East 466 536 27,000  Level Cleveland Center
Sun 11:50:04 PM 41.8672 -83.7842 108° East 466 536 27,000 -50 Level Cleveland Center
Sun 11:51:04 PM 41.8319 -83.6236 106° East 466 536 26,900 -750 Descending Cleveland Center
Sun 11:52:04 PM 41.7925 -83.4575 108° East 466 536 25,500 -1,650 Descending Cleveland Center
Sun 11:53:04 PM 41.7547 -83.2969 107° East 461 531 23,600 -2,050 Descending Cleveland Center
Sun 11:54:04 PM 41.7208 -83.1425 106° East 456 525 21,400 -2,200 Descending Cleveland Center
Sun 11:55:04 PM 41.6844 -82.9939 108° East 430 495 19,200 -1,950 Descending Cleveland Center
Sun 11:56:04 PM 41.6497 -82.8536 108° East 412 474 17,500 -2,000 Descending Cleveland Center
Sun 11:57:04 PM 41.6192 -82.7164 107° East 396 456 15,200 -2,385 Descending Cleveland Center
Sun 11:57:22 PM 41.6072 -82.6769 112° Southeast 384 442 14,400 -2,143 Descending Cleveland Center
Sun 11:57:46 PM 41.5958 -82.6239 106° East 384 442 13,700 -1,857 Descending Cleveland Center
Sun 11:58:04 PM 41.5861 -82.5792 106° East 383 441 13,100 -2,073 Descending Cleveland Center
Sun 11:58:41 PM 41.5667 -82.5008 108° East 375 432 11,800 -1,408 Descending Cleveland Center
Sun 11:59:42 PM 41.5225 -82.3969 120° Southeast 302 348 10,800 -1,388 Descending Cleveland Center
Mon 12:00:42 AM 41.4842 -82.3072 120° Southeast 282 325 9,000 -1,722 Descending Cleveland Center
Mon 12:01:37 AM 41.4458 -82.2258 122° Southeast 266 306 7,500 -2,035 Descending Cleveland Center
Mon 12:02:37 AM 41.4114 -82.1531 122° Southeast 226 260 5,100 -2,182 Descending Cleveland Center
Mon 12:03:38 AM 41.3811 -82.0831 120° Southeast 219 252 3,100 -1,033 Descending Cleveland Center
Mon 12:04:39 AM 41.3528 -82.0189 120° Southeast 175 201 3,000 -347 Descending Cleveland Center
Mon 12:05:39 AM 41.3472 -81.9633 98° East 147 169 2,400 -595 Descending Cleveland Center
Mon 12:06:40 AM 41.3683 -81.9250 54° Northeast 125 144 1,800 -590 Descending Cleveland Center

Login

Don't have an account? Register now (free) for customized features, flight alerts, and more!